createdAt,value
2022-08-11T00:02:01.253Z,99136.02
2022-08-11T00:04:37.144Z,99133.30
2022-08-11T00:07:06.996Z,99111.77
2022-08-11T00:09:40.215Z,99132.73
2022-08-11T00:12:17.098Z,99128.95
2022-08-11T00:14:46.949Z,99136.04
2022-08-11T00:17:16.066Z,99132.05
2022-08-11T00:20:12.617Z,99125.61
2022-08-11T00:22:41.834Z,99129.87
2022-08-11T00:25:16.994Z,99125.50
2022-08-11T00:27:45.610Z,99123.23
2022-08-11T00:30:15.724Z,99122.15
2022-08-11T00:32:53.353Z,99124.89
2022-08-11T00:35:56.095Z,99107.85
2022-08-11T00:38:18.303Z,99122.06
2022-08-11T00:41:09.114Z,99125.27
2022-08-11T00:43:59.716Z,99122.59
2022-08-11T00:46:27.619Z,99121.56
2022-08-11T00:48:55.508Z,99119.77
2022-08-11T00:52:03.937Z,99121.08
2022-08-11T00:54:33.994Z,99125.16
2022-08-11T00:57:37.152Z,99121.31
2022-08-11T01:00:09.149Z,99121.63
2022-08-11T01:02:39.621Z,99111.89
2022-08-11T01:05:18.887Z,99123.73
2022-08-11T01:08:14.899Z,99118.06
2022-08-11T01:10:50.244Z,99116.80
2022-08-11T01:13:53.789Z,99116.85
2022-08-11T01:16:47.147Z,99115.99
2022-08-11T01:19:25.268Z,99115.27
2022-08-11T01:22:18.398Z,99117.20
2022-08-11T01:25:24.637Z,99116.02
2022-08-11T01:28:10.644Z,99110.51
2022-08-11T01:31:06.378Z,99108.89
2022-08-11T01:33:59.631Z,99106.59
2022-08-11T01:36:57.322Z,99103.30
2022-08-11T01:39:50.416Z,99104.66
2022-08-11T01:43:08.275Z,99105.95
2022-08-11T01:45:50.830Z,99099.52
2022-08-11T01:48:21.790Z,99100.61
2022-08-11T01:51:46.943Z,99102.98
2022-08-11T01:54:17.688Z,99102.17
2022-08-11T01:57:11.678Z,99103.85
2022-08-11T01:59:49.608Z,99104.11
2022-08-11T02:02:48.709Z,99096.61
2022-08-11T02:06:00.437Z,99097.50
2022-08-11T02:09:04.049Z,99098.32
2022-08-11T02:11:38.092Z,99100.34
2022-08-11T02:14:21.622Z,99103.90
2022-08-11T02:16:55.750Z,99103.66
2022-08-11T02:20:01.318Z,99101.73
2022-08-11T02:23:13.777Z,99102.88
2022-08-11T02:26:24.916Z,99104.61
2022-08-11T02:29:08.059Z,99104.28
2022-08-11T02:32:40.109Z,99105.23
2022-08-11T02:35:32.910Z,99107.98
2022-08-11T02:38:24.704Z,99106.42
2022-08-11T02:41:26.091Z,99106.01
2022-08-11T02:44:22.700Z,99108.64
2022-08-11T02:47:03.061Z,99113.52
2022-08-11T02:50:06.827Z,99110.34
2022-08-11T02:52:46.837Z,99108.32
2022-08-11T02:55:48.898Z,99107.25
2022-08-11T02:58:34.473Z,99111.76
2022-08-11T03:01:28.609Z,99107.09
2022-08-11T03:04:07.991Z,99107.98
2022-08-11T03:06:48.377Z,99102.54
2022-08-11T03:09:30.057Z,99108.17
2022-08-11T03:12:42.694Z,99106.20
2022-08-11T03:15:46.837Z,99104.39
2022-08-11T03:18:31.767Z,99106.96
2022-08-11T03:20:59.502Z,99103.75
2022-08-11T03:23:39.174Z,99107.94
2022-08-11T03:26:32.104Z,99110.27
2022-08-11T03:29:31.449Z,99111.85
2022-08-11T03:32:06.280Z,99117.38
2022-08-11T03:34:38.119Z,99116.73
2022-08-11T03:38:00.191Z,99119.11
2022-08-11T03:41:57.618Z,99097.39
2022-08-11T03:44:31.820Z,99121.46
2022-08-11T03:47:07.415Z,99118.21
2022-08-11T03:50:13.527Z,99117.88
2022-08-11T03:53:03.310Z,99114.34
2022-08-11T03:55:40.063Z,99115.70
2022-08-11T03:58:26.822Z,99116.39
2022-08-11T04:01:15.886Z,99112.37
2022-08-11T04:04:09.143Z,99111.88
2022-08-11T04:06:42.269Z,99112.63
2022-08-11T04:09:37.932Z,99111.09
2022-08-11T04:12:36.515Z,99108.42
2022-08-11T04:16:00.792Z,99104.55
2022-08-11T04:18:55.372Z,99109.29
2022-08-11T04:22:01.884Z,99111.97
2022-08-11T04:24:38.500Z,99110.12
2022-08-11T04:27:38.979Z,99106.41
2022-08-11T04:30:12.179Z,99109.55
2022-08-11T04:33:10.787Z,99109.73
2022-08-11T04:35:53.865Z,99109.81
2022-08-11T04:38:46.680Z,99112.29
2022-08-11T04:42:05.280Z,99112.71
2022-08-11T04:45:01.279Z,99113.45
2022-08-11T04:48:26.936Z,99114.52
2022-08-11T04:51:27.132Z,99095.65
2022-08-11T04:54:28.263Z,99118.04
2022-08-11T04:57:25.336Z,99120.37
2022-08-11T05:00:27.760Z,99128.58
2022-08-11T05:03:22.299Z,99131.05
2022-08-11T05:06:30.002Z,99133.89
2022-08-11T05:09:21.766Z,99129.36
2022-08-11T05:12:08.723Z,99132.20
2022-08-11T05:15:07.174Z,99123.27
2022-08-11T05:17:58.045Z,99122.01
2022-08-11T05:20:46.256Z,99124.52
2022-08-11T05:23:34.150Z,99117.10
2022-08-11T05:26:46.631Z,99114.66
2022-08-11T05:30:03.528Z,99121.46
2022-08-11T05:33:02.191Z,99113.51
2022-08-11T05:36:01.649Z,99112.32
2022-08-11T05:38:54.921Z,99115.85
2022-08-11T05:41:44.360Z,99121.67
2022-08-11T05:44:38.116Z,99121.08
2022-08-11T05:47:25.155Z,99122.63
2022-08-11T05:50:15.430Z,99127.11
2022-08-11T05:53:09.166Z,99117.14
2022-08-11T05:56:03.752Z,99124.52
2022-08-11T05:58:42.751Z,99132.86
2022-08-11T06:01:14.204Z,99131.80
2022-08-11T06:04:04.055Z,99133.84
2022-08-11T06:06:33.191Z,99144.71
2022-08-11T06:09:02.213Z,99143.89
2022-08-11T06:11:43.766Z,99152.03
2022-08-11T06:14:15.582Z,99158.66
2022-08-11T06:16:49.769Z,99162.55
2022-08-11T06:19:23.205Z,99165.58
2022-08-11T06:21:53.344Z,99168.80
2022-08-11T06:24:21.826Z,99173.48
2022-08-11T06:27:11.905Z,99172.45
2022-08-11T06:29:54.796Z,99173.91
2022-08-11T06:32:31.531Z,99171.70
2022-08-11T06:35:22.328Z,99177.18
2022-08-11T06:37:58.961Z,99163.58
2022-08-11T06:41:15.591Z,99175.27
2022-08-11T06:44:05.352Z,99175.48
2022-08-11T06:46:39.423Z,99176.64
2022-08-11T06:49:33.554Z,99176.05
2022-08-11T06:52:35.153Z,99179.85
2022-08-11T06:55:55.251Z,99173.80
2022-08-11T06:58:23.821Z,99176.83
2022-08-11T07:00:59.681Z,99177.23
2022-08-11T07:03:33.171Z,99179.23
2022-08-11T07:06:22.798Z,99173.23
2022-08-11T07:09:51.457Z,99176.20
2022-08-11T07:12:58.310Z,99175.14
2022-08-11T07:16:13.256Z,99169.02
2022-08-11T07:18:52.778Z,99171.07
2022-08-11T07:22:01.414Z,99167.24
2022-08-11T07:25:02.296Z,99169.10
2022-08-11T07:28:02.494Z,99167.16
2022-08-11T07:30:33.091Z,99167.81
2022-08-11T07:33:03.201Z,99164.08
2022-08-11T07:35:44.118Z,99163.75
2022-08-11T07:38:22.729Z,99167.06
2022-08-11T07:40:53.505Z,99165.11
2022-08-11T07:43:21.518Z,99166.02
2022-08-11T07:46:08.266Z,99168.07
2022-08-11T07:48:55.137Z,99163.16
2022-08-11T07:51:41.819Z,99165.02
2022-08-11T07:54:16.967Z,99164.05
2022-08-11T07:56:54.803Z,99160.28
2022-08-11T08:00:00.574Z,99166.15
2022-08-11T08:03:03.760Z,99165.77
2022-08-11T08:05:52.407Z,99155.23
2022-08-11T08:08:39.430Z,99166.20
2022-08-11T08:11:27.575Z,99166.55
2022-08-11T08:14:14.626Z,99165.84
2022-08-11T08:17:02.088Z,99164.77
2022-08-11T08:19:31.561Z,99159.48
2022-08-11T08:22:10.974Z,99154.70
2022-08-11T08:24:49.583Z,99153.10
2022-08-11T08:27:18.868Z,99150.95
2022-08-11T08:30:06.757Z,99147.58
2022-08-11T08:32:38.662Z,99149.73
2022-08-11T08:35:10.416Z,99150.20
2022-08-11T08:37:46.891Z,99146.21
2022-08-11T08:40:15.969Z,99130.16
2022-08-11T08:42:51.729Z,99138.07
2022-08-11T08:45:20.505Z,99140.08
2022-08-11T08:47:57.337Z,99140.14
2022-08-11T08:50:47.667Z,99138.80
2022-08-11T08:53:23.008Z,99136.73
2022-08-11T08:55:52.710Z,99134.39
2022-08-11T08:58:23.962Z,99119.04
2022-08-11T09:00:55.146Z,99132.53
2022-08-11T09:04:05.218Z,99127.45
2022-08-11T09:06:17.368Z,99131.02
2022-08-11T09:08:46.647Z,99130.80
2022-08-11T09:11:42.746Z,99129.06
2022-08-11T09:14:14.925Z,99128.94
2022-08-11T09:16:44.431Z,99129.40
2022-08-11T09:19:17.574Z,99126.07
2022-08-11T09:22:11.817Z,99128.06
2022-08-11T09:24:58.833Z,99125.66
2022-08-11T09:27:27.789Z,99117.77
2022-08-11T09:29:56.376Z,99110.54
2022-08-11T09:32:24.582Z,99111.58
2022-08-11T09:34:53.995Z,99097.45
2022-08-11T09:37:54.153Z,99105.67
2022-08-11T09:40:32.519Z,99105.17
2022-08-11T09:43:26.299Z,99102.24
2022-08-11T09:45:57.736Z,99090.14
2022-08-11T09:48:29.184Z,99085.65
2022-08-11T09:51:00.298Z,99086.38
2022-08-11T09:53:37.275Z,99083.31
2022-08-11T09:56:34.877Z,99080.57
2022-08-11T09:59:05.988Z,99080.83
2022-08-11T10:01:50.972Z,99081.72
2022-08-11T10:04:28.724Z,99081.65
2022-08-11T10:07:04.281Z,99076.35
2022-08-11T10:09:56.385Z,99075.56
2022-08-11T10:12:32.530Z,99073.36
2022-08-11T10:15:26.275Z,99071.23
2022-08-11T10:18:16.988Z,99069.45
2022-08-11T10:20:50.422Z,99061.98
2022-08-11T10:24:00.876Z,99062.90
2022-08-11T10:26:48.454Z,99053.88
2022-08-11T10:29:37.631Z,99055.96
2022-08-11T10:32:33.299Z,99052.23
2022-08-11T10:35:13.765Z,99049.31
2022-08-11T10:38:08.849Z,99047.13
2022-08-11T10:40:32.880Z,99045.63
2022-08-11T10:43:14.336Z,99042.86
2022-08-11T10:46:30.388Z,99039.33
2022-08-11T10:49:00.403Z,99034.66
2022-08-11T10:51:51.894Z,99033.23
2022-08-11T10:54:41.836Z,99022.90
2022-08-11T10:57:29.390Z,99026.27
2022-08-11T10:59:58.819Z,99028.71
2022-08-11T11:02:28.334Z,99026.56
2022-08-11T11:05:10.415Z,99025.91
2022-08-11T11:08:00.377Z,99029.08
2022-08-11T11:10:28.663Z,99015.75
2022-08-11T11:13:18.359Z,99005.85
2022-08-11T11:16:06.669Z,98993.77
2022-08-11T11:18:37.455Z,98990.89
2022-08-11T11:21:18.660Z,98968.20
2022-08-11T11:23:56.110Z,98990.31
2022-08-11T11:26:30.127Z,98983.58
2022-08-11T11:29:25.833Z,98978.16
2022-08-11T11:32:02.702Z,98975.14
2022-08-11T11:34:53.804Z,98977.39
2022-08-11T11:37:26.049Z,98977.64
2022-08-11T11:39:57.827Z,98974.10
2022-08-11T11:42:26.525Z,98971.98
2022-08-11T11:44:56.363Z,98967.41
2022-08-11T11:47:27.082Z,98958.87
2022-08-11T11:49:56.042Z,98960.04
2022-08-11T11:52:24.597Z,98946.39
2022-08-11T11:54:56.083Z,98959.53
2022-08-11T11:57:59.212Z,98957.69
2022-08-11T12:00:49.171Z,98958.04
2022-08-11T12:03:19.919Z,98953.61
2022-08-11T12:05:48.927Z,98943.27
2022-08-11T12:08:17.509Z,98941.45
2022-08-11T12:10:50.008Z,98944.55
2022-08-11T12:13:37.855Z,98951.05
2022-08-11T12:16:33.948Z,98949.00
2022-08-11T12:19:02.280Z,98946.13
2022-08-11T12:21:31.047Z,98947.45
2022-08-11T12:24:20.862Z,98948.35
2022-08-11T12:27:16.715Z,98948.96
2022-08-11T12:29:41.370Z,98939.56
2022-08-11T12:32:12.368Z,98932.61
2022-08-11T12:34:40.478Z,98926.48
2022-08-11T12:37:13.982Z,98926.75
2022-08-11T12:40:16.095Z,98929.48
2022-08-11T12:43:21.729Z,98915.78
2022-08-11T12:45:58.584Z,98912.03
2022-08-11T12:48:59.588Z,98906.30
2022-08-11T12:52:13.964Z,98911.27
2022-08-11T12:54:57.469Z,98904.13
2022-08-11T12:58:17.329Z,98893.77
2022-08-11T13:01:05.062Z,98894.25
2022-08-11T13:03:56.580Z,98868.05
2022-08-11T13:06:25.815Z,98894.27
2022-08-11T13:09:01.104Z,98892.17
2022-08-11T13:11:55.611Z,98890.82
2022-08-11T13:14:27.513Z,98885.20
2022-08-11T13:17:14.647Z,98882.66
2022-08-11T13:19:46.290Z,98876.33
2022-08-11T13:22:19.232Z,98878.27
2022-08-11T13:24:49.194Z,98852.02
2022-08-11T13:27:18.941Z,98880.11
2022-08-11T13:29:49.195Z,98877.18
2022-08-11T13:32:19.017Z,98876.41
2022-08-11T13:34:48.220Z,98877.08
2022-08-11T13:37:19.555Z,98870.36
2022-08-11T13:40:09.199Z,98867.32
2022-08-11T13:42:39.795Z,98860.23
2022-08-11T13:45:09.493Z,98860.27
2022-08-11T13:47:39.918Z,98854.13
2022-08-11T13:50:13.680Z,98850.36
2022-08-11T13:52:43.416Z,98853.34
2022-08-11T13:55:51.713Z,98853.58
2022-08-11T13:58:20.676Z,98861.56
2022-08-11T14:01:00.887Z,98879.60
2022-08-11T14:04:30.270Z,98903.95
2022-08-11T14:06:30.447Z,98930.42
2022-08-11T14:08:59.474Z,98949.81
2022-08-11T14:12:21.177Z,98958.87
2022-08-11T14:14:38.136Z,98972.80
2022-08-11T14:17:09.087Z,98982.82
2022-08-11T14:19:41.457Z,98987.70
2022-08-11T14:22:12.132Z,98991.09
2022-08-11T14:24:41.816Z,98999.11
2022-08-11T14:28:30.041Z,98995.55
2022-08-11T14:30:01.203Z,98995.77
2022-08-11T14:32:29.690Z,98993.52
2022-08-11T14:34:58.936Z,98980.63
2022-08-11T14:37:29.150Z,98990.34
2022-08-11T14:40:04.213Z,98988.66
2022-08-11T14:42:51.477Z,98989.88
2022-08-11T14:45:57.524Z,98992.86
2022-08-11T14:48:27.031Z,98994.86
2022-08-11T14:50:56.246Z,98992.95
2022-08-11T14:53:24.940Z,98994.20
2022-08-11T14:56:12.756Z,98984.02
2022-08-11T14:58:43.010Z,98977.81
2022-08-11T15:01:31.192Z,98970.44
2022-08-11T15:04:34.196Z,98967.32
2022-08-11T15:06:48.872Z,98964.43
2022-08-11T15:09:17.518Z,98963.88
2022-08-11T15:12:04.465Z,98956.89
2022-08-11T15:15:02.068Z,98958.40
2022-08-11T15:17:43.771Z,98960.88
2022-08-11T15:20:35.992Z,98966.23
2022-08-11T15:23:23.728Z,98968.44
2022-08-11T15:25:58.377Z,98968.10
2022-08-11T15:28:48.416Z,98970.65
2022-08-11T15:31:36.553Z,98964.86
2022-08-11T15:34:27.541Z,98968.02
2022-08-11T15:37:21.019Z,98962.09
2022-08-11T15:40:30.125Z,98961.60
2022-08-11T15:43:29.125Z,98958.79
2022-08-11T15:46:02.297Z,98962.75
2022-08-11T15:48:32.904Z,98966.96
2022-08-11T15:51:11.540Z,98961.58
2022-08-11T15:53:58.582Z,98957.95
2022-08-11T15:56:29.260Z,98958.81
2022-08-11T15:59:42.166Z,98953.66
2022-08-11T16:02:34.249Z,98948.74
2022-08-11T16:05:07.180Z,98960.13
2022-08-11T16:07:39.121Z,98954.64
2022-08-11T16:10:19.359Z,98955.67
2022-08-11T16:13:05.581Z,98955.88
2022-08-11T16:15:58.515Z,98960.93
2022-08-11T16:18:40.768Z,98956.85
2022-08-11T16:21:26.071Z,98954.56
2022-08-11T16:24:04.782Z,98955.84
2022-08-11T16:27:07.523Z,98953.34
2022-08-11T16:29:25.760Z,98951.66
2022-08-11T16:32:15.474Z,98955.08
2022-08-11T16:35:13.702Z,98948.16
2022-08-11T16:38:02.307Z,98937.89
2022-08-11T16:40:32.580Z,98934.99
2022-08-11T16:43:22.707Z,98934.10
2022-08-11T16:46:11.756Z,98935.65
2022-08-11T16:48:42.862Z,98917.34
2022-08-11T16:51:12.913Z,98930.42
2022-08-11T16:53:50.623Z,98909.71
2022-08-11T16:56:43.625Z,98927.70
2022-08-11T16:59:18.529Z,98922.45
2022-08-11T17:01:58.122Z,98910.61
2022-08-11T17:05:08.848Z,98923.29
2022-08-11T17:08:01.114Z,98919.09
2022-08-11T17:11:04.063Z,98919.89
2022-08-11T17:13:37.782Z,98918.39
2022-08-11T17:16:12.780Z,98914.55
2022-08-11T17:18:46.813Z,98903.62
2022-08-11T17:21:27.673Z,98912.62
2022-08-11T17:24:09.363Z,98914.45
2022-08-11T17:26:59.808Z,98915.90
2022-08-11T17:29:53.508Z,98918.02
2022-08-11T17:33:07.349Z,98920.98
2022-08-11T17:35:39.380Z,98915.95
2022-08-11T17:38:12.668Z,98913.42
2022-08-11T17:41:06.612Z,98913.91
2022-08-11T17:43:54.335Z,98914.13
2022-08-11T17:46:42.434Z,98916.86
2022-08-11T17:49:12.901Z,98899.04
2022-08-11T17:52:02.956Z,98916.48
2022-08-11T17:54:51.916Z,98916.73
2022-08-11T17:57:44.266Z,98913.49
2022-08-11T18:00:15.754Z,98910.98
2022-08-11T18:03:04.119Z,98917.07
2022-08-11T18:05:34.650Z,98915.58
2022-08-11T18:08:31.902Z,98911.58
2022-08-11T18:12:06.545Z,98907.08
2022-08-11T18:14:30.252Z,98909.83
2022-08-11T18:17:17.215Z,98911.80
2022-08-11T18:20:04.284Z,98911.78
2022-08-11T18:22:57.010Z,98917.20
2022-08-11T18:25:49.604Z,98916.64
2022-08-11T18:28:42.734Z,98919.58
2022-08-11T18:31:34.127Z,98919.88
2022-08-11T18:34:26.133Z,98920.06
2022-08-11T18:37:29.106Z,98924.69
2022-08-11T18:40:22.276Z,98926.12
2022-08-11T18:43:12.359Z,98926.98
2022-08-11T18:46:06.578Z,98932.46
2022-08-11T18:48:57.725Z,98933.52
2022-08-11T18:51:46.824Z,98935.63
2022-08-11T18:54:37.183Z,98936.44
2022-08-11T18:57:27.264Z,98940.58
2022-08-11T19:00:18.247Z,98939.88
2022-08-11T19:03:05.589Z,98947.30
2022-08-11T19:06:06.127Z,98950.80
2022-08-11T19:09:07.857Z,98947.02
2022-08-11T19:11:56.636Z,98950.04
2022-08-11T19:14:53.490Z,98946.52
2022-08-11T19:17:45.898Z,98944.87
2022-08-11T19:20:36.825Z,98944.38
2022-08-11T19:23:25.797Z,98954.52
2022-08-11T19:26:13.393Z,98951.83
2022-08-11T19:29:03.035Z,98947.99
2022-08-11T19:31:51.893Z,98941.69
2022-08-11T19:34:41.268Z,98903.52
2022-08-11T19:37:29.985Z,98935.13
2022-08-11T19:40:28.360Z,98937.46
2022-08-11T19:43:23.895Z,98937.19
2022-08-11T19:46:17.363Z,98939.32
2022-08-11T19:49:08.358Z,98937.27
2022-08-11T19:51:56.112Z,98937.05
2022-08-11T19:54:45.939Z,98936.79
2022-08-11T19:57:38.942Z,98933.77
2022-08-11T20:00:38.797Z,98931.70
2022-08-11T20:03:29.513Z,98934.29
2022-08-11T20:06:20.816Z,98933.01
2022-08-11T20:09:09.847Z,98931.58
2022-08-11T20:12:03.395Z,98931.48
2022-08-11T20:14:53.084Z,98927.40
2022-08-11T20:17:43.230Z,98927.66
2022-08-11T20:20:33.131Z,98923.62
2022-08-11T20:23:24.912Z,98925.08
2022-08-11T20:26:30.352Z,98923.55
2022-08-11T20:29:20.256Z,98925.26
2022-08-11T20:32:09.648Z,98925.63
2022-08-11T20:35:00.662Z,98930.12
2022-08-11T20:37:51.309Z,98920.74
2022-08-11T20:40:41.536Z,98922.29
2022-08-11T20:44:06.771Z,98923.69
2022-08-11T20:46:43.775Z,98906.08
2022-08-11T20:49:42.297Z,98918.52
2022-08-11T20:52:36.126Z,98919.75
2022-08-11T20:55:25.837Z,98920.80
2022-08-11T20:58:54.825Z,98921.52
2022-08-11T21:01:42.156Z,98924.24
2022-08-11T21:04:29.139Z,98923.42
2022-08-11T21:07:27.063Z,98924.85
2022-08-11T21:10:22.962Z,98927.83
2022-08-11T21:13:24.060Z,98929.11
2022-08-11T21:16:26.415Z,98929.74
2022-08-11T21:19:54.689Z,98930.48
2022-08-11T21:22:59.633Z,98935.79
2022-08-11T21:26:32.374Z,98938.93
2022-08-11T21:29:21.106Z,98945.36
2022-08-11T21:32:09.293Z,98941.44
2022-08-11T21:34:58.007Z,98942.94
2022-08-11T21:37:44.903Z,98942.18
2022-08-11T21:40:39.370Z,98937.10
2022-08-11T21:43:27.937Z,98939.30
2022-08-11T21:46:15.990Z,98934.92
2022-08-11T21:49:03.783Z,98934.60
2022-08-11T21:51:50.347Z,98941.67
2022-08-11T21:54:37.988Z,98938.73
2022-08-11T21:57:25.598Z,98942.66
2022-08-11T22:00:16.631Z,98942.39
2022-08-11T22:03:05.484Z,98941.86
2022-08-11T22:05:53.835Z,98938.81
2022-08-11T22:08:40.168Z,98941.08
2022-08-11T22:11:32.357Z,98941.88
2022-08-11T22:14:24.082Z,98947.66
2022-08-11T22:17:13.688Z,98950.19
2022-08-11T22:20:02.799Z,98949.48
2022-08-11T22:22:53.463Z,98951.02
2022-08-11T22:25:46.568Z,98947.97
2022-08-11T22:28:38.789Z,98949.27
2022-08-11T22:31:27.293Z,98944.91
2022-08-11T22:34:14.108Z,98947.36
2022-08-11T22:37:02.994Z,98941.45
2022-08-11T22:39:59.875Z,98946.08
2022-08-11T22:42:51.236Z,98947.02
2022-08-11T22:45:38.690Z,98951.86
2022-08-11T22:48:27.883Z,98951.04
2022-08-11T22:51:16.244Z,98954.35
2022-08-11T22:54:04.117Z,98951.09
2022-08-11T22:56:51.451Z,98948.94
2022-08-11T22:59:38.785Z,98954.02
2022-08-11T23:02:26.307Z,98951.60
2022-08-11T23:05:13.711Z,98949.82
2022-08-11T23:08:01.161Z,98947.45
2022-08-11T23:10:48.561Z,98950.44
2022-08-11T23:13:35.385Z,98945.27
2022-08-11T23:16:22.595Z,98942.26
2022-08-11T23:19:09.587Z,98934.90
2022-08-11T23:21:57.531Z,98932.77
2022-08-11T23:24:45.175Z,98931.37
2022-08-11T23:27:33.580Z,98929.11
2022-08-11T23:30:21.234Z,98925.78
2022-08-11T23:33:13.442Z,98924.95
2022-08-11T23:36:05.339Z,98922.16
2022-08-11T23:38:52.370Z,98921.21
2022-08-11T23:41:39.238Z,98918.38
2022-08-11T23:44:27.292Z,98915.24
2022-08-11T23:47:17.644Z,98916.83
2022-08-11T23:50:06.684Z,98913.16
2022-08-11T23:52:54.528Z,98914.03
2022-08-11T23:55:41.054Z,98919.48
2022-08-11T23:58:28.368Z,98919.23
